Latest Weather Observations for Cairns

IDQ60801

Issued at 8:32 am EST Sunday 23 July 2017 (issued every 30 minutes, with the page automatically refreshed every 10 minutes)

About weather observations | Map of weather stations | Latest weather observations for QLD | Other Formats
Station Details ID: 031011 Name: CAIRNS AERO Lat: -16.87 Lon: 145.75 Height: 2.22 m
Data from the previous 72 hours. | See also: Recent months at Cairns
Date/Time
EST
Temp
°C
App
Temp
°C
Dew
Point
°C
Rel
Hum
%
Delta-T
°C
Wind Press
QNH
hPa
Press
MSL
hPa
Rain since
9am
mm
Dir  Spd
km/h
Gust
km/h
Spd
kts
Gust
kts
23/08:00am 21.6 20.3 16.8 74 2.9 SSE 19 30 10 16 1018.6 1018.6 0.0
23/07:30am 21.1 19.6 16.7 76 2.7 S 20 30 11 16 1018.1 1018.1 0.0
23/07:00am 20.7 19.1 16.5 77 2.5 S 20 32 11 17 1017.8 1017.8 0.0
23/06:30am 20.6 19.1 16.4 77 2.5 S 19 32 10 17 1017.7 1017.7 0.0
23/06:00am 20.2 19.1 16.4 79 2.3 SSE 17 24 9 13 1017.5 1017.5 0.0
23/05:30am 20.6 19.4 16.2 76 2.6 S 17 26 9 14 1017.2 1017.2 0.0
23/05:00am 19.7 18.5 16.2 80 2.1 SSE 17 24 9 13 1017.0 1017.0 0.0
23/04:30am 20.5 18.9 16.1 76 2.6 S 19 30 10 16 1016.7 1016.7 0.0
23/04:00am 20.4 18.6 16.0 76 2.6 SSE 20 28 11 15 1016.8 1016.8 0.0
23/03:30am 20.2 19.0 16.2 78 2.4 SSE 17 26 9 14 1017.0 1017.0 0.0
23/03:00am 21.1 19.3 16.1 73 3.0 S 20 30 11 16 1017.1 1017.1 0.0
23/02:30am 21.0 19.8 16.0 73 3.0 SSE 17 24 9 13 1017.3 1017.3 0.0
23/02:00am 21.5 20.0 16.2 72 3.2 S 19 28 10 15 1017.7 1017.7 0.0
23/01:30am 21.4 20.1 15.9 71 3.3 S 17 26 9 14 1017.9 1017.9 0.0
23/01:00am 21.2 19.6 16.4 74 2.9 S 20 30 11 16 1018.1 1018.1 0.0
23/12:30am 21.2 20.6 16.6 75 2.8 SSE 15 20 8 11 1018.3 1018.3 0.0
23/12:00am 21.0 20.0 16.6 76 2.7 SSE 17 26 9 14 1018.6 1018.6 0.0
 
Date/Time
EST
Temp
°C
App
Temp
°C
Dew
Point
°C
Rel
Hum
%
Delta-T
°C
Wind Press
QNH
hPa
Press
MSL
hPa
Rain since
9am
mm
Dir  Spd
km/h
Gust
km/h
Spd
kts
Gust
kts
22/11:30pm 20.9 19.9 16.7 77 2.5 S 17 28 9 15 1018.7 1018.7 0.0
22/11:00pm 21.3 19.8 16.7 75 2.8 S 20 30 11 16 1019.0 1019.0 0.0
22/10:30pm 21.4 20.5 16.8 75 2.8 S 17 28 9 15 1019.0 1019.0 0.0
22/10:00pm 21.3 20.0 16.9 76 2.7 S 19 26 10 14 1019.1 1019.1 0.0
22/09:30pm 21.4 20.1 16.8 75 2.8 S 19 30 10 16 1019.0 1019.0 0.0
22/09:00pm 21.4 20.5 16.8 75 2.8 S 17 26 9 14 1019.0 1019.0 0.0
22/08:30pm 21.3 21.2 16.9 76 2.7 SSE 13 19 7 10 1018.7 1018.7 0.0
22/08:00pm 21.4 20.5 16.8 75 2.8 SSE 17 26 9 14 1018.4 1018.4 0.0
22/07:30pm 21.5 21.2 17.3 77 2.6 S 15 20 8 11 1018.0 1018.0 0.0
22/07:00pm 21.5 21.5 17.1 76 2.7 SSE 13 17 7 9 1017.6 1017.6 0.0
22/06:30pm 21.9 21.0 16.8 73 3.1 SE 17 22 9 12 1017.2 1017.2 0.0
22/06:00pm 22.7 21.8 16.9 70 3.5 SE 17 20 9 11 1016.9 1016.9 0.0
22/05:30pm 23.2 21.7 16.7 67 4.0 SE 20 28 11 15 1016.5 1016.5 0.0
22/05:00pm 23.7 21.0 16.7 65 4.3 SE 26 30 14 16 1016.1 1016.1 0.0
22/04:30pm 24.1 21.4 16.6 63 4.6 SE 26 32 14 17 1015.9 1015.9 0.0
22/04:00pm 24.9 22.4 17.1 62 4.8 SE 26 33 14 18 1015.8 1015.8 0.0
22/03:30pm 25.1 22.2 16.0 57 5.5 SE 26 32 14 17 1015.9 1015.9 0.0
22/03:00pm 25.6 22.5 16.5 57 5.6 SE 28 33 15 18 1015.8 1015.8 0.0
22/02:30pm 26.1 22.9 16.4 55 6.0 ESE 28 33 15 18 1016.0 1016.0 0.0
22/02:00pm 26.3 24.3 16.5 54 6.0 ESE 22 30 12 16 1016.4 1016.4 0.0
22/01:30pm 26.5 23.5 16.7 55 6.1 SE 28 33 15 18 1016.8 1016.8 0.0
22/01:00pm 26.4 23.3 16.6 55 6.1 SE 28 35 15 19 1017.5 1017.5 0.0
22/12:30pm 26.7 23.6 16.6 54 6.3 SE 28 37 15 20 1017.8 1017.8 0.0
22/12:00pm 26.4 22.8 16.3 53 6.2 SE 30 37 16 20 1018.2 1018.2 0.0
22/11:30am 25.9 21.7 15.6 53 6.3 SE 32 37 17 20 1018.6 1018.6 0.0
22/11:00am 25.8 22.7 16.6 56 5.7 SE 28 35 15 19 1019.1 1019.1 0.0
22/10:30am 24.9 23.7 17.6 64 4.6 SSE 20 32 11 17 1019.5 1019.5 0.0
22/10:00am 23.0 22.2 17.2 70 3.6 SSE 17 26 9 14 1019.7 1019.7 0.0
22/09:30am 21.9 20.6 16.8 73 3.1 S 19 28 10 15 1019.8 1019.8 0.0
22/09:00am 21.7 20.4 16.9 74 2.9 S 19 30 10 16 1019.6 1019.6 0.0
22/08:30am 21.5 20.2 16.7 74 2.9 S 19 30 10 16 1019.5 1019.5 0.0
22/08:00am 21.4 20.0 16.6 74 2.9 S 19 30 10 16 1019.1 1019.1 0.0
22/07:30am 21.1 20.0 16.3 74 2.9 SSE 17 26 9 14 1018.8 1018.8 0.0
22/07:00am 20.5 19.2 15.9 75 2.7 SSE 17 24 9 13 1018.5 1018.5 0.0
22/06:30am 21.3 20.0 15.8 71 3.3 S 17 26 9 14 1018.0 1018.0 0.0
22/06:00am 20.6 19.5 15.2 71 3.2 SSE 15 26 8 14 1017.7 1017.7 0.0
22/05:30am 20.6 19.8 15.2 71 3.2 S 13 19 7 10 1017.3 1017.3 0.0
22/05:00am 20.1 18.6 15.3 74 2.8 SSE 17 24 9 13 1017.0 1017.0 0.0
22/04:30am 20.4 19.3 15.2 72 3.1 SSE 15 28 8 15 1016.9 1016.9 0.0
22/04:00am 20.0 18.9 15.2 74 2.8 SSE 15 24 8 13 1016.8 1016.8 0.0
22/03:30am 19.5 18.4 15.2 76 2.5 SSE 15 22 8 12 1016.8 1016.8 0.0
22/03:00am 19.3 18.5 15.2 77 2.4 SSE 13 19 7 10 1016.9 1016.9 0.0
22/02:30am 19.5 18.4 15.4 77 2.4 SSE 15 22 8 12 1017.0 1017.0 0.0
22/02:00am 18.9 18.0 15.8 82 1.8 SSE 15 20 8 11 1017.3 1017.3 0.0
22/01:30am 19.2 17.9 15.7 80 2.1 SSE 17 26 9 14 1017.4 1017.4 0.0
22/01:00am 19.2 18.3 15.9 81 2.0 SSE 15 20 8 11 1017.4 1017.4 0.0
22/12:30am 19.2 18.3 15.9 81 2.0 SSE 15 19 8 10 1017.6 1017.6 0.0
22/12:00am 19.8 19.3 15.9 78 2.3 SSE 13 17 7 9 1017.9 1017.9 0.0
 
Date/Time
EST
Temp
°C
App
Temp
°C
Dew
Point
°C
Rel
Hum
%
Delta-T
°C
Wind Press
QNH
hPa
Press
MSL
hPa
Rain since
9am
mm
Dir  Spd
km/h
Gust
km/h
Spd
kts
Gust
kts
21/11:30pm 19.8 19.7 15.9 78 2.3 S 11 17 6 9 1018.0 1018.0 0.0
21/11:00pm 18.8 18.7 15.9 83 1.7 SE 11 15 6 8 1018.4 1018.4 0.0
21/10:30pm 20.4 19.9 15.8 75 2.7 S 13 22 7 12 1018.4 1018.4 0.0
21/10:00pm 20.1 19.7 16.1 78 2.4 SSE 13 17 7 9 1018.5 1018.5 0.0
21/09:30pm 20.6 20.1 16.0 75 2.8 S 13 17 7 9 1018.4 1018.4 0.0
21/09:00pm 20.5 20.7 15.7 74 2.9 S 9 15 5 8 1018.4 1018.4 0.0
21/08:30pm 20.6 20.4 15.6 73 3.0 S 11 17 6 9 1018.2 1018.2 0.0
21/08:00pm 21.0 21.1 15.5 71 3.3 SSE 9 13 5 7 1017.9 1017.9 0.0
21/07:30pm 21.3 21.1 15.8 71 3.3 SSE 11 15 6 8 1017.6 1017.6 0.0
21/07:00pm 21.4 20.6 16.1 72 3.2 SSE 15 20 8 11 1017.0 1017.0 0.0
21/06:30pm 21.4 21.3 15.9 71 3.3 SSE 11 13 6 7 1016.7 1016.7 0.0
21/06:00pm 22.1 19.4 15.7 67 3.8 SE 24 32 13 17 1016.4 1016.4 0.0
21/05:30pm 22.8 21.0 15.4 63 4.4 SE 19 24 10 13 1016.1 1016.1 0.0
21/05:00pm 23.5 21.5 15.5 60 4.8 SE 20 26 11 14 1015.8 1015.8 0.0
21/04:30pm 24.1 21.7 15.3 58 5.3 SE 22 28 12 15 1015.4 1015.4 0.0
21/04:00pm 24.3 22.4 15.8 59 5.1 ESE 20 26 11 14 1015.0 1015.0 0.0
21/03:30pm 24.9 23.0 15.8 57 5.5 SE 20 28 11 15 1014.8 1014.8 0.0
21/03:00pm 25.0 23.9 16.4 59 5.3 ESE 17 26 9 14 1014.8 1014.8 0.0
21/02:30pm 24.8 23.1 15.7 57 5.5 SE 19 28 10 15 1015.1 1015.1 0.0
21/02:00pm 24.7 22.9 15.9 58 5.3 ESE 20 26 11 14 1015.6 1015.6 0.0
21/01:30pm 24.9 23.0 15.8 57 5.5 SE 20 30 11 16 1016.0 1016.0 0.0
21/01:00pm 25.0 23.4 15.9 57 5.5 ESE 19 28 10 15 1016.4 1016.4 0.0
21/12:30pm 25.9 24.4 16.2 55 6.0 ESE 19 26 10 14 1016.9 1016.9 0.0
21/12:00pm 24.7 23.2 16.2 59 5.2 ESE 19 24 10 13 1017.2 1017.2 0.0
21/11:30am 25.1 24.1 16.5 59 5.3 ESE 17 24 9 13 1017.4 1017.4 0.0
21/11:00am 24.2 23.0 17.0 64 4.4 SE 19 24 10 13 1017.8 1017.8 0.0
21/10:30am 23.4 22.9 16.9 67 4.0 SSE 15 19 8 10 1017.9 1017.9 0.0
21/10:00am 22.8 23.0 16.8 69 3.7 S 11 19 6 10 1018.0 1018.0 0.0
21/09:30am 22.2 21.0 16.0 68 3.7 S 17 22 9 12 1017.8 1017.8 0.0
21/09:00am 23.4 22.9 16.9 67 4.0 S 15 22 8 12 1017.9 1017.9 0.0
21/08:30am 22.3 21.5 16.1 68 3.7 SSE 15 20 8 11 1017.7 1017.7 0.0
21/08:00am 20.2 18.9 15.8 76 2.6 SE 17 19 9 10 1017.5 1017.5 0.0
21/07:30am 18.5 16.4 14.8 79 2.2 SE 19 22 10 12 1017.1 1017.1 0.0
21/07:00am 17.8 15.6 14.5 81 1.9 SE 19 24 10 13 1016.8 1016.8 0.0
21/06:30am 18.6 18.2 15.1 80 2.0 SE 11 19 6 10 1016.4 1016.4 0.0
21/06:00am 18.3 17.0 14.8 80 2.0 SE 15 19 8 10 1016.2 1016.2 0.0
21/05:30am 17.6 14.9 14.5 82 1.8 SE 22 26 12 14 1015.9 1015.9 0.0
21/05:00am 18.0 15.6 14.3 79 2.1 SE 20 26 11 14 1015.6 1015.6 0.0
21/04:30am 17.7 15.3 14.4 81 1.9 SE 20 26 11 14 1015.4 1015.4 0.0
21/04:00am 18.3 15.9 14.4 78 2.2 SE 20 26 11 14 1015.4 1015.4 0.0
21/03:30am 17.9 15.5 14.4 80 2.0 SE 20 28 11 15 1015.6 1015.6 0.0
21/03:00am 18.0 15.6 14.3 79 2.1 SE 20 26 11 14 1015.7 1015.7 0.0
21/02:30am 18.2 15.7 14.1 77 2.3 SE 20 26 11 14 1015.7 1015.7 0.0
21/02:00am 18.0 16.0 13.9 77 2.3 SE 17 24 9 13 1015.9 1015.9 0.0
21/01:30am 20.0 18.9 14.4 70 3.3 SSE 13 19 7 10 1016.0 1016.0 0.0
21/01:00am 18.1 15.6 14.2 78 2.2 SE 20 26 11 14 1016.5 1016.5 0.0
21/12:30am 18.7 17.1 14.0 74 2.7 SE 15 20 8 11 1016.6 1016.6 0.0
21/12:00am 19.5 17.9 13.9 70 3.2 SE 15 20 8 11 1016.7 1016.7 0.0
 
Date/Time
EST
Temp
°C
App
Temp
°C
Dew
Point
°C
Rel
Hum
%
Delta-T
°C
Wind Press
QNH
hPa
Press
MSL
hPa
Rain since
9am
mm
Dir  Spd
km/h
Gust
km/h
Spd
kts
Gust
kts
20/11:30pm 19.7 17.9 13.4 67 3.6 SSE 15 20 8 11 1017.0 1017.0 0.0
20/11:00pm 19.5 18.0 13.2 67 3.6 SSE 13 19 7 10 1017.3 1017.3 0.0
20/10:30pm 19.6 18.1 13.1 66 3.7 SSE 13 19 7 10 1017.3 1017.3 0.0
20/10:00pm 20.1 17.8 13.1 64 4.0 S 17 22 9 12 1017.4 1017.4 0.0
20/09:30pm 20.5 18.6 13.0 62 4.3 S 15 28 8 15 1017.4 1017.4 0.0
20/09:00pm 20.0 18.5 13.0 64 4.0 S 13 20 7 11 1017.4 1017.4 0.0
20/08:30pm 20.1 17.7 12.8 63 4.1 S 17 26 9 14 1017.2 1017.2 0.0
20/08:00pm 20.1 18.1 12.6 62 4.2 S 15 22 8 12 1017.0 1017.0 0.0
20/07:30pm 20.5 18.8 12.5 60 4.5 S 13 20 7 11 1016.8 1016.8 0.0
20/07:00pm 20.7 19.1 12.9 61 4.4 S 13 19 7 10 1016.3 1016.3 0.0
20/06:30pm 20.8 19.5 13.7 64 4.1 SSE 13 17 7 9 1015.8 1015.8 0.0
20/06:00pm 21.2 19.1 13.6 62 4.4 SE 17 24 9 13 1015.2 1015.2 0.0
20/05:30pm 22.2 18.8 13.8 59 4.9 SE 24 30 13 16 1014.8 1014.8 0.0
20/05:00pm 23.1 18.9 13.6 55 5.5 SE 28 33 15 18 1014.4 1014.4 0.0
20/04:30pm 23.7 19.6 13.8 53 5.8 SE 28 33 15 18 1014.4 1014.4 0.0
20/04:00pm 24.5 20.6 14.3 53 6.0 SE 28 37 15 20 1014.4 1014.4 0.0
20/03:30pm 24.8 20.5 14.3 52 6.2 SE 30 35 16 19 1014.4 1014.4 0.0
20/03:00pm 25.3 21.4 13.2 47 7.1 ESE 26 33 14 18 1014.4 1014.4 0.0
20/02:30pm 25.7 21.2 12.5 44 7.6 SE 28 33 15 18 1014.3 1014.3 0.0
20/02:00pm 26.4 22.4 10.5 37 8.9 SSE 22 30 12 16 1014.6 1014.6 0.0
20/01:30pm 26.1 21.1 9.5 35 9.1 SSE 26 32 14 17 1015.0 1015.0 0.0
20/01:00pm 26.6 20.8 8.1 31 9.9 SE 28 37 15 20 1015.5 1015.5 0.0
20/12:30pm 26.6 20.7 7.6 30 10.1 SE 28 35 15 19 1015.8 1015.8 0.0
20/12:00pm 26.0 19.8 8.0 32 9.6 SE 30 35 16 19 1016.3 1016.3 0.0
20/11:30am 25.8 20.8 7.9 32 9.6 SE 24 33 13 18 1016.7 1016.7 0.0
20/11:00am 25.3 19.4 6.0 29 9.9 SSE 26 35 14 19 1017.1 1017.1 0.0
20/10:30am 24.6 19.2 8.1 35 8.8 SSE 26 35 14 19 1017.2 1017.2 0.0
20/10:00am 23.7 18.6 7.8 36 8.4 SSE 24 39 13 21 1017.3 1017.3 0.0
20/09:30am 23.0 18.2 8.7 40 7.6 SSE 24 33 13 18 1017.3 1017.3 0.0
20/09:00am 22.7 17.6 9.1 42 7.3 SSE 26 37 14 20 1017.1 1017.1 0.0

Other Formats:

Comma delimited format used in spreadsheet applications
http://www.bom.gov.au/fwo/IDQ60801/IDQ60801.94287.axf

JavaScript Object Notation format (JSON) in row-major order
http://www.bom.gov.au/fwo/IDQ60801/IDQ60801.94287.json